Home > Products > Valid Products > TAF

000
FTUS44 KMRX 181720
TAFTRI
TAF
KTRI 181720Z 1818/1918 06003KT P6SM BKN060
     FM191400 04003KT P6SM SCT060 SCT250=



000
FTUS44 KMRX 181720
TAFTRI
TAF
KTRI 181720Z 1818/1918 06003KT P6SM BKN060
     FM191400 04003KT P6SM SCT060 SCT250=



000
FTUS44 KMRX 181720
TAFTYS
TAF
KTYS 181720Z 1818/1918 04003KT P6SM BKN070
     FM191200 05003KT P6SM SCT060 SCT250=



000
FTUS44 KMRX 181720
TAFCHA
TAF
KCHA 181720Z 1818/1918 01003KT P6SM BKN060
     FM190800 01003KT P6SM SCT060 SCT250
     FM191600 02005KT P6SM BKN250=



000
FTUS44 KMRX 181720
TAFTYS
TAF
KTYS 181720Z 1818/1918 04003KT P6SM BKN070
     FM191200 05003KT P6SM SCT060 SCT250=



000
FTUS44 KMRX 181720
TAFCHA
TAF
KCHA 181720Z 1818/1918 01003KT P6SM BKN060
     FM190800 01003KT P6SM SCT060 SCT250
     FM191600 02005KT P6SM BKN250=



000
FTUS44 KMRX 181401 AAC
TAFTRI
TAF AMD
KTRI 181401Z 1814/1912 VRB03KT P6SM BKN080
     FM190100 00000KT P6SM SCT050 SCT100=



000
FTUS44 KMRX 181401 AAC
TAFTRI
TAF AMD
KTRI 181401Z 1814/1912 VRB03KT P6SM BKN080
     FM190100 00000KT P6SM SCT050 SCT100=



000
FTUS44 KMRX 181401 AAC
TAFTRI
TAF AMD
KTRI 181401Z 1814/1912 VRB03KT P6SM BKN080
     FM190100 00000KT P6SM SCT050 SCT100=



000
FTUS44 KMRX 181245 AAB
TAFTRI
TAF AMD
KTRI 181245Z 1813/1912 00000KT 1SM BR OVC004
     FM181500 VRB03KT P6SM BKN100
     FM190100 00000KT P6SM SCT050 SCT100=



000
FTUS44 KMRX 181245 AAB
TAFTRI
TAF AMD
KTRI 181245Z 1813/1912 00000KT 1SM BR OVC004
     FM181500 VRB03KT P6SM BKN100
     FM190100 00000KT P6SM SCT050 SCT100=



000
FTUS44 KMRX 181245 AAB
TAFTRI
TAF AMD
KTRI 181245Z 1813/1912 00000KT 1SM BR OVC004
     FM181500 VRB03KT P6SM BKN100
     FM190100 00000KT P6SM SCT050 SCT100=



000
FTUS44 KMRX 181155 AAA
TAFTRI
TAF AMD
KTRI 181155Z 1812/1912 00000KT 1SM BR OVC005
     FM181300 VRB03KT P6SM BKN100
     FM190100 00000KT P6SM SCT050 SCT100=



000
FTUS44 KMRX 181155 AAA
TAFTRI
TAF AMD
KTRI 181155Z 1812/1912 00000KT 1SM BR OVC005
     FM181300 VRB03KT P6SM BKN100
     FM190100 00000KT P6SM SCT050 SCT100=



000
FTUS44 KMRX 181155 AAA
TAFTRI
TAF AMD
KTRI 181155Z 1812/1912 00000KT 1SM BR OVC005
     FM181300 VRB03KT P6SM BKN100
     FM190100 00000KT P6SM SCT050 SCT100=



000
FTUS44 KMRX 181120
TAFCHA
TAF
KCHA 181120Z 1812/1912 02003KT P6SM OVC100
     FM181400 34005KT P6SM BKN050 OVC100
     FM190200 00000KT P6SM SCT050 SCT250=



000
FTUS44 KMRX 181120
TAFTYS
TAF
KTYS 181120Z 1812/1912 02003KT P6SM VCSH OVC100
     FM181500 34003KT P6SM BKN050 OVC090
     FM190300 00000KT P6SM SCT050 SCT250=



000
FTUS44 KMRX 181120
TAFTRI
TAF
KTRI 181120Z 1812/1912 00000KT 4SM BR OVC005
     FM181300 VRB03KT P6SM BKN100
     FM190100 00000KT P6SM SCT050 SCT100=



000
FTUS44 KMRX 181120
TAFTRI
TAF
KTRI 181120Z 1812/1912 00000KT 4SM BR OVC005
     FM181300 00000KT P6SM BKN200
     FM190100 00000KT P6SM SCT050 SCT100=



000
FTUS44 KMRX 181120
TAFCHA
TAF
KCHA 181120Z 1812/1912 02003KT P6SM VCSH OVC100
     FM181400 34005KT P6SM BKN050 OVC090
     FM190200 00000KT P6SM SCT050 SCT200=



000
FTUS44 KMRX 181120
TAFTRI
TAF
KTRI 181120Z 1812/1912 00000KT 4SM BR OVC005
     FM181300 00000KT P6SM BKN200
     FM190100 00000KT P6SM SCT050 SCT100=



000
FTUS44 KMRX 181120
TAFTYS
TAF
KTYS 181120Z 1812/1912 02003KT P6SM VCSH OVC100
     FM181600 34003KT P6SM BKN050 OVC090
     FM190300 00000KT P6SM SCT050 SCT250=



000
FTUS44 KMRX 180957 AAB
TAFTRI
TAF AMD
KTRI 180957Z 1810/1906 00000KT 1/2SM FZFG OVC005
     FM181300 VRB03KT P6SM BKN100
     FM190100 00000KT P6SM SCT050 SCT100=



000
FTUS44 KMRX 180957 AAB
TAFTRI
TAF AMD
KTRI 180957Z 1810/1906 00000KT 1/2SM FZFG OVC005
     FM181300 VRB03KT P6SM BKN100
     FM190100 00000KT P6SM SCT050 SCT100=



000
FTUS44 KMRX 180954 AAA
TAFTRI
TAF AMD
KTRI 180954Z 1810/1906 00000KT 1/2SM FZFG OVC015
     FM181300 VRB03KT P6SM BKN100
     FM190100 00000KT P6SM SCT050 SCT100=



000
FTUS44 KMRX 180954 AAA
TAFTRI
TAF AMD
KTRI 180954Z 1810/1906 00000KT 1/2SM FZFG OVC015
     FM181300 VRB03KT P6SM BKN100
     FM190100 00000KT P6SM SCT050 SCT100=



000
FTUS44 KMRX 180520
TAFTYS
TAF
KTYS 180520Z 1806/1906 00000KT P6SM BKN200
     FM181000 02003KT P6SM OVC100
     FM181600 34003KT P6SM BKN050 OVC090
     FM190300 00000KT P6SM SCT050 SCT250=



000
FTUS44 KMRX 180520
TAFCHA
TAF
KCHA 180520Z 1806/1906 02005KT P6SM SCT025 BKN200
     FM180900 02003KT P6SM OVC100
     FM181400 34005KT P6SM BKN050 OVC090
     FM190200 00000KT P6SM SCT050 SCT250=



000
FTUS44 KMRX 180520
TAFTRI
TAF
KTRI 180520Z 1806/1906 00000KT P6SM SCT250
     FM181400 VRB03KT P6SM BKN100
     FM190100 00000KT P6SM SCT050 SCT100=



000
FTUS44 KMRX 172321
TAFTRI
TAF
KTRI 172321Z 1800/1824 00000KT P6SM SCT035 BKN200
     FM181400 VRB03KT P6SM OVC100=



000
FTUS44 KMRX 172321
TAFCHA
TAF
KCHA 172321Z 1800/1824 02005KT P6SM SCT025 BKN200
     FM181400 02003KT P6SM OVC100=



000
FTUS44 KMRX 172321
TAFTYS
TAF
KTYS 172321Z 1800/1824 00000KT P6SM SCT035 BKN200
     FM181400 02003KT P6SM OVC100=



000
FTUS44 KMRX 172321
TAFTRI
TAF
KTRI 172321Z 1800/1824 00000KT P6SM SCT035 BKN200
     FM181400 VRB03KT P6SM OVC100=



000
FTUS44 KMRX 172321
TAFCHA
TAF
KCHA 172321Z 1800/1824 02005KT P6SM SCT025 BKN200
     FM181400 02003KT P6SM OVC100=



000
FTUS44 KMRX 172321
TAFTYS
TAF
KTYS 172321Z 1800/1824 00000KT P6SM SCT035 BKN200
     FM181400 02003KT P6SM OVC100=



000
FTUS44 KMRX 172013 AAA
TAFCHA
TAF AMD
KCHA 172013Z 1720/1818 02005KT P6SM SCT025 BKN200
     FM181400 02003KT P6SM OVC100=



000
FTUS44 KMRX 172013 AAA
TAFCHA
TAF AMD
KCHA 172013Z 1720/1818 02005KT P6SM SCT025 BKN200
     FM181400 02003KT P6SM OVC100=



000
FTUS44 KMRX 171720
TAFTYS
TAF
KTYS 171720Z 1718/1818 26007KT P6SM BKN025
     FM172000 26007KT P6SM SCT025 BKN035
      TEMPO 1720/1722 BKN025
     FM180000 00000KT P6SM SCT035 BKN200
     FM181400 02003KT P6SM OVC100=



000
FTUS44 KMRX 171720
TAFTYS
TAF
KTYS 171720Z 1718/1818 26007KT P6SM BKN025
     FM172000 26007KT P6SM SCT025 BKN035
      TEMPO 1720/1722 BKN025
     FM180000 00000KT P6SM SCT035 BKN200
     FM181400 02003KT P6SM OVC100=



000
FTUS44 KMRX 171720
TAFCHA
TAF
KCHA 171720Z 1718/1818 36009KT P6SM OVC020
     FM172200 36007KT P6SM SCT025 BKN035
      TEMPO 1722/1724 BKN025
     FM180000 00000KT P6SM SCT035 BKN200
     FM181400 02003KT P6SM OVC100=



000
FTUS44 KMRX 171720
TAFCHA
TAF
KCHA 171720Z 1718/1818 36009KT P6SM OVC020
     FM172200 36007KT P6SM SCT025 BKN035
      TEMPO 1722/1724 BKN025
     FM180000 00000KT P6SM SCT035 BKN200
     FM181400 02003KT P6SM OVC100=



000
FTUS44 KMRX 171720
TAFTRI
TAF
KTRI 171720Z 1718/1818 26008KT P6SM BKN025
     FM172000 27006KT P6SM SCT025 BKN035
     FM180000 00000KT P6SM SCT035 BKN200
     FM181400 VRB03KT P6SM OVC100=



000
FTUS44 KMRX 171720
TAFTRI
TAF
KTRI 171720Z 1718/1818 26008KT P6SM BKN025
     FM172000 27006KT P6SM SCT025 BKN035
     FM180000 00000KT P6SM SCT035 BKN200
     FM181400 VRB03KT P6SM OVC100=



000
FTUS44 KMRX 171601 AAA
TAFCHA
TAF AMD
KCHA 171601Z 1716/1812 36009KT P6SM OVC020
     FM172000 36007KT P6SM SCT030 BKN250
     FM180100 36004KT P6SM BKN150=



000
FTUS44 KMRX 171601 AAA
TAFCHA
TAF AMD
KCHA 171601Z 1716/1812 36009KT P6SM OVC020
     FM172000 36007KT P6SM SCT030 BKN250
     FM180100 36004KT P6SM BKN150=



000
FTUS44 KMRX 171601 AAA
TAFCHA
TAF AMD
KCHA 171601Z 1716/1812 36009KT P6SM OVC020
     FM172000 36007KT P6SM SCT030 BKN250
     FM180100 36004KT P6SM BKN150=



000
FTUS44 KMRX 171121
TAFTRI
TAF
KTRI 171121Z 1712/1812 26007KT P6SM OVC020
     FM171900 26007KT P6SM BKN035
     FM180000 VRB02KT P6SM SCT035 BKN200=



000
FTUS44 KMRX 171121
TAFTYS
TAF
KTYS 171121Z 1712/1812 26005KT P6SM OVC020
     FM171800 30006KT P6SM BKN025
     FM172100 31005KT P6SM SCT035 BKN250=



000
FTUS44 KMRX 171121
TAFCHA
TAF
KCHA 171121Z 1712/1812 33005KT P6SM OVC020
     FM171700 36007KT P6SM SCT035 BKN250
     FM180100 36004KT P6SM BKN150=



000
FTUS44 KMRX 171121
TAFTYS
TAF
KTYS 171121Z 1712/1812 26005KT P6SM OVC020
     FM171800 30006KT P6SM BKN025
     FM172100 31005KT P6SM SCT035 BKN250=



000
FTUS44 KMRX 171121
TAFCHA
TAF
KCHA 171121Z 1712/1812 33005KT P6SM OVC020
     FM171700 36007KT P6SM SCT035 BKN250
     FM180100 36004KT P6SM BKN150=



000
FTUS44 KMRX 171121
TAFTRI
TAF
KTRI 171121Z 1712/1812 26007KT P6SM OVC020
     FM171900 26007KT P6SM BKN035
     FM180000 VRB02KT P6SM SCT035 BKN200=



000
FTUS44 KMRX 170521
TAFCHA
TAF
KCHA 170521Z 1706/1806 33005KT P6SM BKN025
      TEMPO 1706/1709 BKN035
     FM171800 36007KT P6SM SCT035 BKN250
     FM180100 36004KT P6SM BKN150=



000
FTUS44 KMRX 170521
TAFTRI
TAF
KTRI 170521Z 1706/1806 25007KT P6SM OVC025
      TEMPO 1706/1709 BKN035
     FM171000 26007KT P6SM OVC015
     FM171900 26007KT P6SM BKN035
     FM180000 VRB02KT P6SM SCT035 BKN200=



000
FTUS44 KMRX 170521
TAFTYS
TAF
KTYS 170521Z 1706/1806 26006KT P6SM OVC025
      TEMPO 1706/1709 BKN035
     FM171100 26005KT P6SM OVC015
     FM171800 30006KT P6SM BKN025
     FM172100 31005KT P6SM SCT035 BKN250
     FM180100 36003KT P6SM SCT035 BKN150=



000
FTUS44 KMRX 170521
TAFCHA
TAF
KCHA 170521Z 1706/1806 33005KT P6SM BKN025
      TEMPO 1706/1709 BKN035
     FM171800 36007KT P6SM SCT035 BKN250
     FM180100 36004KT P6SM BKN150=



000
FTUS44 KMRX 170521
TAFTYS
TAF
KTYS 170521Z 1706/1806 26006KT P6SM OVC025
      TEMPO 1706/1709 BKN035
     FM171100 26005KT P6SM OVC015
     FM171800 30006KT P6SM BKN025
     FM172100 31005KT P6SM SCT035 BKN250
     FM180100 36003KT P6SM SCT035 BKN150=



000
FTUS44 KMRX 170521
TAFTRI
TAF
KTRI 170521Z 1706/1806 25007KT P6SM OVC025
      TEMPO 1706/1709 BKN035
     FM171000 26007KT P6SM OVC015
     FM171900 26007KT P6SM BKN035
     FM180000 VRB02KT P6SM SCT035 BKN200=



000
FTUS44 KMRX 162324
TAFTYS
TAF
KTYS 162324Z 1700/1724 25006KT P6SM OVC025
      TEMPO 1700/1703 BKN035
     FM171000 26005KT P6SM OVC015
     FM171900 30006KT P6SM BKN025
     FM172100 31005KT P6SM SCT035 BKN250=



000
FTUS44 KMRX 162324
TAFCHA
TAF
KCHA 162324Z 1700/1724 33006KT P6SM BKN025
      TEMPO 1700/1703 BKN035
     FM171900 35007KT P6SM SCT035 BKN250=



000
FTUS44 KMRX 162324
TAFTRI
TAF
KTRI 162324Z 1700/1724 26007KT P6SM OVC025
      TEMPO 1700/1703 BKN035
     FM171000 26006KT P6SM OVC015
     FM171900 26007KT P6SM BKN025=



000
FTUS44 KMRX 162324
TAFCHA
TAF
KCHA 162324Z 1700/1724 33006KT P6SM BKN025
      TEMPO 1700/1703 BKN035
     FM171900 35007KT P6SM SCT035 BKN250=



000
FTUS44 KMRX 162324
TAFTRI
TAF
KTRI 162324Z 1700/1724 26007KT P6SM OVC025
      TEMPO 1700/1703 BKN035
     FM171000 26006KT P6SM OVC015
     FM171900 26007KT P6SM BKN025=



000
FTUS44 KMRX 162324
TAFTYS
TAF
KTYS 162324Z 1700/1724 25006KT P6SM OVC025
      TEMPO 1700/1703 BKN035
     FM171000 26005KT P6SM OVC015
     FM171900 30006KT P6SM BKN025
     FM172100 31005KT P6SM SCT035 BKN250=



000
FTUS44 KMRX 161726 AAA
TAFTYS
TAF AMD
KTYS 161726Z 1617/1718 25013KT P6SM VCSH OVC025
     FM162200 25011KT P6SM OVC030
     FM170000 26005KT P6SM OVC025=



000
FTUS44 KMRX 161726 AAA
TAFTYS
TAF AMD
KTYS 161726Z 1617/1718 25013KT P6SM VCSH OVC025
     FM162200 25011KT P6SM OVC030
     FM170000 26005KT P6SM OVC025=



000
FTUS44 KMRX 161722
TAFCHA
TAF
KCHA 161722Z 1618/1718 24011KT P6SM BKN035
     FM170000 32006KT P6SM BKN035
     FM171200 35007KT P6SM BKN025=



000
FTUS44 KMRX 161722
TAFTRI
TAF
KTRI 161722Z 1618/1718 25009KT P6SM VCSH BKN015 OVC025
     FM170200 26008KT P6SM OVC020=



000
FTUS44 KMRX 161722
TAFTYS
TAF
KTYS 161722Z 1618/1718 25013KT P6SM VCSH OVC035
     FM162200 25011KT P6SM OVC030
     FM170000 26005KT P6SM OVC025=



000
FTUS44 KMRX 161722
TAFTYS
TAF
KTYS 161722Z 1618/1718 25013KT P6SM VCSH OVC035
     FM162200 25011KT P6SM OVC030
     FM170000 26005KT P6SM OVC025=



000
FTUS44 KMRX 161722
TAFCHA
TAF
KCHA 161722Z 1618/1718 24011KT P6SM BKN035
     FM170000 32006KT P6SM BKN035
     FM171200 35007KT P6SM BKN025=



000
FTUS44 KMRX 161722
TAFTRI
TAF
KTRI 161722Z 1618/1718 25009KT P6SM VCSH BKN015 OVC025
     FM170200 26008KT P6SM OVC020=



000
FTUS44 KMRX 161506 AAA
TAFCHA
TAF AMD
KCHA 161506Z 1615/1712 24009G14KT P6SM BKN035
     FM170000 32004KT P6SM BKN050=



000
FTUS44 KMRX 161505 AAG
TAFTYS
TAF AMD
KTYS 161505Z 1615/1712 VRB04KT 4SM BR BKN025
     FM161600 22007KT P6SM BKN025 BKN090
     FM161800 24012G16KT P6SM VCSH OVC025
     FM162200 25011KT P6SM OVC030
     FM170100 26005KT P6SM OVC025=



000
FTUS44 KMRX 161505 AAG
TAFTYS
TAF AMD
KTYS 161505Z 1615/1712 VRB04KT 4SM BR BKN025
     FM161600 22007KT P6SM BKN025 BKN090
     FM161800 24012G16KT P6SM VCSH OVC025
     FM162200 25011KT P6SM OVC030
     FM170100 26005KT P6SM OVC025=



000
FTUS44 KMRX 161436 AAF
TAFTYS
TAF AMD
KTYS 161436Z 1615/1712 VRB04KT 1SM BR BKN025
     FM161530 22007KT 4SM BR BKN025 BKN090
     FM161800 24012G16KT P6SM VCSH OVC025
     FM162200 25011KT P6SM OVC030
     FM170100 26005KT P6SM OVC025=



000
FTUS44 KMRX 161436 AAF
TAFTYS
TAF AMD
KTYS 161436Z 1615/1712 VRB04KT 1SM BR BKN025
     FM161530 22007KT 4SM BR BKN025 BKN090
     FM161800 24012G16KT P6SM VCSH OVC025
     FM162200 25011KT P6SM OVC030
     FM170100 26005KT P6SM OVC025=



000
FTUS44 KMRX 161427 AAB
TAFTRI
TAF AMD
KTRI 161427Z 1614/1712 VRB04KT 6SM BR BKN025 BKN050
     FM161700 25008G15KT P6SM VCSH BKN015 OVC025
     FM170200 26008KT P6SM OVC015=



000
FTUS44 KMRX 161427 AAB
TAFTRI
TAF AMD
KTRI 161427Z 1614/1712 VRB04KT 6SM BR BKN025 BKN050
     FM161700 25008G15KT P6SM VCSH BKN015 OVC025
     FM170200 26008KT P6SM OVC015=



000
FTUS44 KMRX 161400 AAA
TAFTRI
TAF AMD
KTRI 161400Z 1614/1712 VRB04KT P6SM OVC035
     FM161700 25008G15KT P6SM VCSH BKN015 OVC025
     FM170200 26008KT P6SM OVC015=



000
FTUS44 KMRX 161351 AAE
TAFTYS
TAF AMD
KTYS 161351Z 1614/1712 VRB04KT 1/4SM FG VV001 BKN025
     FM161600 22007KT P6SM BKN025 BKN090
     FM161800 24012G16KT P6SM VCSH OVC025
     FM162200 25011KT P6SM OVC030
     FM170100 26005KT P6SM OVC025=



000
FTUS44 KMRX 161351 AAE
TAFTYS
TAF AMD
KTYS 161351Z 1614/1712 VRB04KT 1/4SM FG VV001 BKN025
     FM161600 22007KT P6SM BKN025 BKN090
     FM161800 24012G16KT P6SM VCSH OVC025
     FM162200 25011KT P6SM OVC030
     FM170100 26005KT P6SM OVC025=



000
FTUS44 KMRX 161259 AAD
TAFTYS
TAF AMD
KTYS 161259Z 1613/1712 VRB04KT 1/4SM FG VV001 BKN025
     FM161400 22007KT P6SM BKN025 BKN090
     FM161600 24012G16KT P6SM VCSH OVC025
     FM162200 25011KT P6SM OVC030
     FM170100 26005KT P6SM OVC025=



000
FTUS44 KMRX 161259 AAD
TAFTYS
TAF AMD
KTYS 161259Z 1613/1712 VRB04KT 1/4SM FG VV001 BKN025
     FM161400 22007KT P6SM BKN025 BKN090
     FM161600 24012G16KT P6SM VCSH OVC025
     FM162200 25011KT P6SM OVC030
     FM170100 26005KT P6SM OVC025=



000
FTUS44 KMRX 161225 AAC
TAFTYS
TAF AMD
KTYS 161225Z 1612/1712 VRB04KT 3SM BR BKN004 BKN025
      TEMPO 1612/1613 1/2SM FG VV001
     FM161400 22007KT P6SM BKN025 BKN090
     FM161600 24012G16KT P6SM VCSH OVC025
     FM162200 25011KT P6SM OVC030
     FM170100 26005KT P6SM OVC025=



000
FTUS44 KMRX 161225 AAC
TAFTYS
TAF AMD
KTYS 161225Z 1612/1712 VRB04KT 3SM BR BKN004 BKN025
      TEMPO 1612/1613 1/2SM FG VV001
     FM161400 22007KT P6SM BKN025 BKN090
     FM161600 24012G16KT P6SM VCSH OVC025
     FM162200 25011KT P6SM OVC030
     FM170100 26005KT P6SM OVC025=



000
FTUS44 KMRX 161151 AAB
TAFTYS
TAF AMD
KTYS 161151Z 1612/1712 VRB04KT 3SM BR BKN004 BKN025
      TEMPO 1612/1613 1SM BR OVC004
     FM161400 22007KT P6SM BKN025 BKN090
     FM161600 24012G16KT P6SM VCSH OVC025
     FM162200 25011KT P6SM OVC030
     FM170100 26005KT P6SM OVC025=



000
FTUS44 KMRX 161151 AAB
TAFTYS
TAF AMD
KTYS 161151Z 1612/1712 VRB04KT 3SM BR BKN004 BKN025
      TEMPO 1612/1613 1SM BR OVC004
     FM161400 22007KT P6SM BKN025 BKN090
     FM161600 24012G16KT P6SM VCSH OVC025
     FM162200 25011KT P6SM OVC030
     FM170100 26005KT P6SM OVC025=



000
FTUS44 KMRX 161136 AAA
TAFTYS
TAF AMD
KTYS 161136Z 1612/1712 VRB04KT 3SM BR BKN004 BKN025
     FM161300 22007KT P6SM BKN025 BKN090
     FM161600 24012G16KT P6SM VCSH OVC025
     FM162200 25011KT P6SM OVC030
     FM170100 26005KT P6SM OVC025=



000
FTUS44 KMRX 161136 AAA
TAFTYS
TAF AMD
KTYS 161136Z 1612/1712 VRB04KT 3SM BR BKN004 BKN025
     FM161300 22007KT P6SM BKN025 BKN090
     FM161600 24012G16KT P6SM VCSH OVC025
     FM162200 25011KT P6SM OVC030
     FM170100 26005KT P6SM OVC025=



000
FTUS44 KMRX 161125
TAFTYS
TAF
KTYS 161125Z 1612/1712 VRB04KT 3SM BR SCT005 BKN025
     FM161300 22007KT P6SM BKN025 BKN090
     FM161600 24012G16KT P6SM VCSH OVC025
     FM162200 25011KT P6SM OVC030
     FM170100 26005KT P6SM OVC025=



000
FTUS44 KMRX 161125
TAFCHA
TAF
KCHA 161125Z 1612/1712 25006KT P6SM SCT015 BKN040
     FM161500 26009G14KT P6SM BKN035
     FM170000 32004KT P6SM BKN050=



000
FTUS44 KMRX 161125
TAFCHA
TAF
KCHA 161125Z 1612/1712 25006KT P6SM SCT015 BKN040
     FM161500 26009G14KT P6SM BKN035
     FM170000 32004KT P6SM BKN050=



000
FTUS44 KMRX 161125
TAFTRI
TAF
KTRI 161125Z 1612/1712 VRB04KT 4SM -SHRA BR OVC035
     FM161430 22006KT 3SM BR BKN015 OVC030
     FM161700 25008G15KT P6SM VCSH BKN015 OVC025
     FM170200 26008KT P6SM OVC015=



000
FTUS44 KMRX 161125
TAFTYS
TAF
KTYS 161125Z 1612/1712 VRB04KT 3SM BR SCT005 BKN025
     FM161300 22007KT P6SM BKN025 BKN090
     FM161600 24012G16KT P6SM VCSH OVC025
     FM162200 25011KT P6SM OVC030
     FM170100 26005KT P6SM OVC025=



000
FTUS44 KMRX 161125
TAFTRI
TAF
KTRI 161125Z 1612/1712 VRB04KT 4SM -SHRA BR OVC035
     FM161430 22006KT 3SM BR BKN015 OVC030
     FM161700 25008G15KT P6SM VCSH BKN015 OVC025
     FM170200 26008KT P6SM OVC015=



000
FTUS44 KMRX 161047 AAC
TAFTYS
TAF AMD
KTYS 161047Z 1611/1706 VRB04KT 3SM BR SCT005 BKN025
     FM161300 22007KT P6SM BKN025 BKN090
     FM161600 24012G16KT P6SM VCSH OVC025
     FM162200 25011KT P6SM OVC030
     FM170100 26005KT P6SM OVC025=



000
FTUS44 KMRX 161047 AAC
TAFTYS
TAF AMD
KTYS 161047Z 1611/1706 VRB04KT 3SM BR SCT005 BKN025
     FM161300 22007KT P6SM BKN025 BKN090
     FM161600 24012G16KT P6SM VCSH OVC025
     FM162200 25011KT P6SM OVC030
     FM170100 26005KT P6SM OVC025=



000
FTUS44 KMRX 161046 AAB
TAFTYS
TAF AMD
KTYS 161046Z 1611/1706 22007KT P6SM BKN025 BKN090
     FM161600 24012G16KT P6SM VCSH OVC025
     FM162200 25011KT P6SM OVC030
     FM170100 26005KT P6SM OVC025=



000
FTUS44 KMRX 161040 AAC
TAFCHA
TAF AMD
KCHA 161040Z 1611/1706 25006KT P6SM SCT020 BKN050
     FM161500 26009G14KT P6SM BKN035
     FM170000 32004KT P6SM BKN050=



000
FTUS44 KMRX 161040 AAC
TAFCHA
TAF AMD
KCHA 161040Z 1611/1706 25006KT P6SM SCT020 BKN050
     FM161500 26009G14KT P6SM BKN035
     FM170000 32004KT P6SM BKN050=



000
FTUS44 KMRX 160912 AAA
TAFTYS
TAF AMD
KTYS 160912Z 1609/1706 VRB04KT 5SM -SHRA BR SCT007 OVC030
      TEMPO 1609/1611 2SM -SHRA BR BKN007 OVC025
     FM161200 23007KT P6SM VCSH SCT025 OVC045
     FM161600 23014KT P6SM VCSH OVC025
     FM162000 26011KT P6SM OVC050
     FM170100 26004KT P6SM OVC025=



000
FTUS44 KMRX 160912 AAA
TAFTYS
TAF AMD
KTYS 160912Z 1609/1706 VRB04KT 5SM -SHRA BR SCT007 OVC030
      TEMPO 1609/1611 2SM -SHRA BR BKN007 OVC025
     FM161200 23007KT P6SM VCSH SCT025 OVC045
     FM161600 23014KT P6SM VCSH OVC025
     FM162000 26011KT P6SM OVC050
     FM170100 26004KT P6SM OVC025=



000
FTUS44 KMRX 160908 AAB
TAFCHA
TAF AMD
KCHA 160908Z 1609/1706 VRB04KT 2SM BR VCSH SCT012 BKN090
      TEMPO 1609/1611 4SM BR BKN015
     FM161100 25006KT P6SM BKN015
     FM161500 27005KT P6SM OVC025
     FM161800 28008KT P6SM BKN050
     FM170000 VRB04KT P6SM BKN050=



000
FTUS44 KMRX 160908 AAB
TAFCHA
TAF AMD
KCHA 160908Z 1609/1706 VRB04KT 2SM BR VCSH SCT012 BKN090
      TEMPO 1609/1611 4SM BR BKN015
     FM161100 25006KT P6SM BKN015
     FM161500 27005KT P6SM OVC025
     FM161800 28008KT P6SM BKN050
     FM170000 VRB04KT P6SM BKN050=



000
FTUS44 KMRX 160744 AAA
TAFCHA
TAF AMD
KCHA 160744Z 1608/1706 17003KT P6SM -SHRA VCTS SCT030CB OVC040
      TEMPO 1608/1609 3SM -SHRA BR BKN020 OVC040
     FM160900 21005KT P6SM VCSH SCT012 BKN020
     FM161300 25004KT 4SM BR OVC010
     FM161500 27005KT P6SM OVC015
     FM161800 28008KT P6SM BKN050
     FM170000 VRB04KT P6SM BKN050=



000
FTUS44 KMRX 160744 AAA
TAFCHA
TAF AMD
KCHA 160744Z 1608/1706 17003KT P6SM -SHRA VCTS SCT030CB OVC040
      TEMPO 1608/1609 3SM -SHRA BR BKN020 OVC040
     FM160900 21005KT P6SM VCSH SCT012 BKN020
     FM161300 25004KT 4SM BR OVC010
     FM161500 27005KT P6SM OVC015
     FM161800 28008KT P6SM BKN050
     FM170000 VRB04KT P6SM BKN050=



000
FTUS44 KMRX 160526
TAFCHA
TAF
KCHA 160526Z 1606/1706 17003KT P6SM -SHRA VCTS SCT030CB OVC040
      TEMPO 1606/1608 3SM -SHRA BR BKN025
     FM160800 21005KT 3SM -SHRA BR OVC010
     FM161300 25004KT 4SM BR OVC007
     FM161500 27005KT P6SM OVC015
     FM161800 28008KT P6SM BKN050
     FM170000 VRB04KT P6SM BKN050=



000
FTUS44 KMRX 160526
TAFTYS
TAF
KTYS 160526Z 1606/1706 22006KT 6SM -SHRA BR VCTS OVC030CB
      TEMPO 1606/1609 3SM -SHRA BR OVC025
     FM161100 23007KT 2SM -SHRA BR OVC015
     FM161600 23014KT P6SM OVC025
     FM162000 26011KT P6SM OVC050
     FM170100 26004KT P6SM OVC025=



000
FTUS44 KMRX 160526
TAFTRI
TAF
KTRI 160526Z 1606/1706 00000KT P6SM VCSH SCT050 OVC100
      TEMPO 1606/1609 4SM -SHRA BR BKN040
     FM160900 00000KT 4SM -SHRA BR OVC050
     FM161200 20003KT 2SM -SHRA BR OVC035
     FM161500 24010KT 4SM BR OVC035
     FM161700 25014KT P6SM OVC050
     FM170200 26008KT P6SM OVC025=



000
FTUS44 KMRX 160526
TAFTYS
TAF
KTYS 160526Z 1606/1706 22006KT 6SM -SHRA BR VCTS OVC030CB
      TEMPO 1606/1609 3SM -SHRA BR OVC025
     FM161100 23007KT 2SM -SHRA BR OVC015
     FM161600 23014KT P6SM OVC025
     FM162000 26011KT P6SM OVC050
     FM170100 26004KT P6SM OVC025=



000
FTUS44 KMRX 160526
TAFTRI
TAF
KTRI 160526Z 1606/1706 00000KT P6SM VCSH SCT050 OVC100
      TEMPO 1606/1609 4SM -SHRA BR BKN040
     FM160900 00000KT 4SM -SHRA BR OVC050
     FM161200 20003KT 2SM -SHRA BR OVC035
     FM161500 24010KT 4SM BR OVC035
     FM161700 25014KT P6SM OVC050
     FM170200 26008KT P6SM OVC025=



000
FTUS44 KMRX 160526
TAFCHA
TAF
KCHA 160526Z 1606/1706 17003KT P6SM -SHRA VCTS SCT030CB OVC040
      TEMPO 1606/1608 3SM -SHRA BR BKN025
     FM160800 21005KT 3SM -SHRA BR OVC010
     FM161300 25004KT 4SM BR OVC007
     FM161500 27005KT P6SM OVC015
     FM161800 28008KT P6SM BKN050
     FM170000 VRB04KT P6SM BKN050=



000
FTUS44 KMRX 160439 AAC
TAFCHA
TAF AMD
KCHA 160439Z 1605/1624 00000KT P6SM VCTS SCT025CB OVC035
      TEMPO 1605/1606 5SM -SHRA BKN025
     FM160600 16005KT 4SM -SHRA BR OVC025
     FM160800 20005KT 2SM -SHRA BR OVC010
     FM161400 24008KT P6SM BKN050
     FM161800 27008KT P6SM BKN050=



000
FTUS44 KMRX 160439 AAC
TAFCHA
TAF AMD
KCHA 160439Z 1605/1624 00000KT P6SM VCTS SCT025CB OVC035
      TEMPO 1605/1606 5SM -SHRA BKN025
     FM160600 16005KT 4SM -SHRA BR OVC025
     FM160800 20005KT 2SM -SHRA BR OVC010
     FM161400 24008KT P6SM BKN050
     FM161800 27008KT P6SM BKN050=



000
FTUS44 KMRX 160419 AAB
TAFCHA
TAF AMD
KCHA 160419Z 1604/1624 00000KT 5SM -SHRA BR OVC035
      TEMPO 1604/1606 BKN025
     FM160600 16005KT 4SM -SHRA BR OVC025
     FM160800 20005KT 2SM -SHRA BR OVC010
     FM161400 24008KT P6SM BKN050
     FM161800 27008KT P6SM BKN050=



000
FTUS44 KMRX 160419 AAB
TAFCHA
TAF AMD
KCHA 160419Z 1604/1624 00000KT 5SM -SHRA BR OVC035
      TEMPO 1604/1606 BKN025
     FM160600 16005KT 4SM -SHRA BR OVC025
     FM160800 20005KT 2SM -SHRA BR OVC010
     FM161400 24008KT P6SM BKN050
     FM161800 27008KT P6SM BKN050=



000
FTUS44 KMRX 160331 AAA
TAFTYS
TAF AMD
KTYS 160331Z 1604/1624 22006KT 6SM -SHRA BR OVC030
     FM160700 22008KT 4SM -SHRA BR OVC025
     FM161000 23009KT 2SM -SHRA BR OVC010
     FM161600 24017KT P6SM BKN050
     FM162100 24011KT P6SM OVC050=



000
FTUS44 KMRX 160331 AAA
TAFTYS
TAF AMD
KTYS 160331Z 1604/1624 22006KT 6SM -SHRA BR OVC030
     FM160700 22008KT 4SM -SHRA BR OVC025
     FM161000 23009KT 2SM -SHRA BR OVC010
     FM161600 24017KT P6SM BKN050
     FM162100 24011KT P6SM OVC050=



000
FTUS44 KMRX 160331 AAA
TAFTYS
TAF AMD
KTYS 160331Z 1604/1624 22006KT 6SM -SHRA BR OVC030
     FM160700 22008KT 4SM -SHRA BR OVC025
     FM161000 23009KT 2SM -SHRA BR OVC010
     FM161600 24017KT P6SM BKN050
     FM162100 24011KT P6SM OVC050=



000
FTUS44 KMRX 160003 AAA
TAFCHA
TAF AMD
KCHA 160003Z 1600/1624 VRB04KT 4SM -SHRA BR BKN025 OVC035
      TEMPO 1600/1603 SCT025 OVC035
     FM160400 16005KT 4SM -SHRA BR OVC025
     FM160800 20005KT 2SM -SHRA BR OVC010
     FM161400 24008KT P6SM BKN050
     FM161800 27008KT P6SM BKN050=



000
FTUS44 KMRX 160003 AAA
TAFCHA
TAF AMD
KCHA 160003Z 1600/1624 VRB04KT 4SM -SHRA BR BKN025 OVC035
      TEMPO 1600/1603 SCT025 OVC035
     FM160400 16005KT 4SM -SHRA BR OVC025
     FM160800 20005KT 2SM -SHRA BR OVC010
     FM161400 24008KT P6SM BKN050
     FM161800 27008KT P6SM BKN050=



000
FTUS44 KMRX 152334
TAFTRI
TAF
KTRI 152334Z 1600/1624 VRB03KT P6SM BKN250
     FM160400 00000KT P6SM VCSH OVC100
     FM160900 00000KT 4SM -SHRA BR OVC050
     FM161200 20003KT 2SM -SHRA BR OVC020
     FM161600 23010KT 4SM BR OVC035
     FM161800 24015KT P6SM OVC050
     FM162200 25009KT P6SM OVC050=



000
FTUS44 KMRX 152334
TAFTYS
TAF
KTYS 152334Z 1600/1624 VRB04KT P6SM BKN250
     FM160300 22006KT P6SM VCSH OVC100
     FM160600 22008KT 4SM -SHRA BR OVC050
     FM161000 23009KT 2SM -SHRA BR OVC010
     FM161600 24017KT P6SM BKN050
     FM162100 24011KT P6SM OVC050=



000
FTUS44 KMRX 152334
TAFCHA
TAF
KCHA 152334Z 1600/1624 VRB04KT P6SM VCSH BKN040
     FM160400 16005KT 4SM -SHRA BR OVC030
     FM160800 20005KT 2SM -SHRA BR OVC010
     FM161400 24008KT P6SM BKN050
     FM161800 27008KT P6SM BKN050=



000
FTUS44 KMRX 152334
TAFTRI
TAF
KTRI 152334Z 1600/1624 VRB03KT P6SM BKN250
     FM160400 00000KT P6SM VCSH OVC100
     FM160900 00000KT 4SM -SHRA BR OVC050
     FM161200 20003KT 2SM -SHRA BR OVC020
     FM161600 23010KT 4SM BR OVC035
     FM161800 24015KT P6SM OVC050
     FM162200 25009KT P6SM OVC050=



000
FTUS44 KMRX 152334
TAFTYS
TAF
KTYS 152334Z 1600/1624 VRB04KT P6SM BKN250
     FM160300 22006KT P6SM VCSH OVC100
     FM160600 22008KT 4SM -SHRA BR OVC050
     FM161000 23009KT 2SM -SHRA BR OVC010
     FM161600 24017KT P6SM BKN050
     FM162100 24011KT P6SM OVC050=



000
FTUS44 KMRX 152334
TAFCHA
TAF
KCHA 152334Z 1600/1624 VRB04KT P6SM VCSH BKN040
     FM160400 16005KT 4SM -SHRA BR OVC030
     FM160800 20005KT 2SM -SHRA BR OVC010
     FM161400 24008KT P6SM BKN050
     FM161800 27008KT P6SM BKN050=



    US Dept of Commerce
    National Oceanic and Atmospheric Administration
    National Weather Service
    1325 East West Highway
    Silver Spring, MD 20910
    Page Author: NWS Internet Services Team
Disclaimer
Information Quality
Credits
Glossary
Privacy Policy
Freedom of Information Act (FOIA)
About Us
Career Opportunities